sensor_id;sensor_type;location;lat;lon;timestamp;P1;durP1;ratioP1;P2;durP2;ratioP2
22205;SDS011;11272;50.104;8.754;2024-02-21T00:01:47;11.90;;;4.30;;
22205;SDS011;11272;50.104;8.754;2024-02-21T00:04:12;14.23;;;4.97;;
22205;SDS011;11272;50.104;8.754;2024-02-21T00:06:38;20.67;;;4.83;;
22205;SDS011;11272;50.104;8.754;2024-02-21T00:09:05;16.73;;;4.53;;
22205;SDS011;11272;50.104;8.754;2024-02-21T00:11:31;17.97;;;4.57;;
22205;SDS011;11272;50.104;8.754;2024-02-21T00:13:56;17.23;;;5.23;;
22205;SDS011;11272;50.104;8.754;2024-02-21T00:16:22;16.67;;;5.47;;
22205;SDS011;11272;50.104;8.754;2024-02-21T00:18:48;12.57;;;5.10;;
22205;SDS011;11272;50.104;8.754;2024-02-21T00:21:13;17.83;;;5.40;;
22205;SDS011;11272;50.104;8.754;2024-02-21T00:23:46;18.40;;;5.53;;
22205;SDS011;11272;50.104;8.754;2024-02-21T00:26:12;18.13;;;5.63;;
22205;SDS011;11272;50.104;8.754;2024-02-21T00:28:38;15.23;;;5.37;;
22205;SDS011;11272;50.104;8.754;2024-02-21T00:31:04;19.07;;;5.30;;
22205;SDS011;11272;50.104;8.754;2024-02-21T00:33:31;21.27;;;5.97;;
22205;SDS011;11272;50.104;8.754;2024-02-21T00:35:56;24.07;;;6.27;;
22205;SDS011;11272;50.104;8.754;2024-02-21T00:38:22;21.73;;;4.43;;
22205;SDS011;11272;50.104;8.754;2024-02-21T00:40:47;18.47;;;5.60;;
22205;SDS011;11272;50.104;8.754;2024-02-21T00:43:13;16.37;;;6.10;;
22205;SDS011;11272;50.104;8.754;2024-02-21T00:45:38;17.63;;;5.93;;
22205;SDS011;11272;50.104;8.754;2024-02-21T00:48:04;23.13;;;6.33;;
22205;SDS011;11272;50.104;8.754;2024-02-21T00:50:30;18.63;;;4.93;;
22205;SDS011;11272;50.104;8.754;2024-02-21T00:52:55;21.27;;;6.57;;
22205;SDS011;11272;50.104;8.754;2024-02-21T00:55:21;19.17;;;6.23;;
22205;SDS011;11272;50.104;8.754;2024-02-21T00:57:49;20.47;;;7.40;;
22205;SDS011;11272;50.104;8.754;2024-02-21T01:00:17;18.30;;;6.80;;
22205;SDS011;11272;50.104;8.754;2024-02-21T01:02:43;16.13;;;6.43;;
22205;SDS011;11272;50.104;8.754;2024-02-21T01:05:09;14.83;;;4.93;;
22205;SDS011;11272;50.104;8.754;2024-02-21T01:07:34;21.77;;;6.87;;
22205;SDS011;11272;50.104;8.754;2024-02-21T01:10:00;19.67;;;6.00;;
22205;SDS011;11272;50.104;8.754;2024-02-21T01:12:25;19.90;;;6.47;;
22205;SDS011;11272;50.104;8.754;2024-02-21T01:14:51;18.33;;;6.63;;
22205;SDS011;11272;50.104;8.754;2024-02-21T01:17:16;16.47;;;6.17;;
22205;SDS011;11272;50.104;8.754;2024-02-21T01:19:46;26.87;;;7.67;;
22205;SDS011;11272;50.104;8.754;2024-02-21T01:22:11;17.57;;;5.73;;
22205;SDS011;11272;50.104;8.754;2024-02-21T01:24:37;21.50;;;7.47;;
22205;SDS011;11272;50.104;8.754;2024-02-21T01:27:03;20.50;;;6.40;;
22205;SDS011;11272;50.104;8.754;2024-02-21T01:29:28;17.03;;;6.40;;
22205;SDS011;11272;50.104;8.754;2024-02-21T01:31:54;14.93;;;6.87;;
22205;SDS011;11272;50.104;8.754;2024-02-21T01:34:19;20.90;;;7.07;;
22205;SDS011;11272;50.104;8.754;2024-02-21T01:36:45;17.13;;;6.90;;
22205;SDS011;11272;50.104;8.754;2024-02-21T01:39:10;18.57;;;6.30;;
22205;SDS011;11272;50.104;8.754;2024-02-21T01:41:36;21.70;;;7.00;;
22205;SDS011;11272;50.104;8.754;2024-02-21T01:44:01;19.33;;;7.00;;
22205;SDS011;11272;50.104;8.754;2024-02-21T01:46:27;14.47;;;5.93;;
22205;SDS011;11272;50.104;8.754;2024-02-21T01:48:55;18.90;;;7.03;;
22205;SDS011;11272;50.104;8.754;2024-02-21T01:51:22;19.37;;;7.17;;
22205;SDS011;11272;50.104;8.754;2024-02-21T01:53:53;17.67;;;7.80;;
22205;SDS011;11272;50.104;8.754;2024-02-21T01:56:20;19.33;;;6.80;;
22205;SDS011;11272;50.104;8.754;2024-02-21T01:58:47;19.27;;;6.50;;
22205;SDS011;11272;50.104;8.754;2024-02-21T02:01:13;13.53;;;7.13;;
22205;SDS011;11272;50.104;8.754;2024-02-21T02:03:39;19.57;;;7.60;;
22205;SDS011;11272;50.104;8.754;2024-02-21T02:06:05;18.50;;;7.40;;
22205;SDS011;11272;50.104;8.754;2024-02-21T02:08:31;23.87;;;7.97;;
22205;SDS011;11272;50.104;8.754;2024-02-21T02:10:57;15.93;;;7.53;;
22205;SDS011;11272;50.104;8.754;2024-02-21T02:13:23;21.37;;;7.37;;
22205;SDS011;11272;50.104;8.754;2024-02-21T02:15:49;19.93;;;7.10;;
22205;SDS011;11272;50.104;8.754;2024-02-21T02:18:15;17.63;;;7.73;;
22205;SDS011;11272;50.104;8.754;2024-02-21T02:20:42;22.90;;;7.33;;
22205;SDS011;11272;50.104;8.754;2024-02-21T02:23:10;23.10;;;7.60;;
22205;SDS011;11272;50.104;8.754;2024-02-21T02:26:11;23.07;;;7.43;;
22205;SDS011;11272;50.104;8.754;2024-02-21T02:28:36;19.73;;;6.83;;
22205;SDS011;11272;50.104;8.754;2024-02-21T02:31:02;20.17;;;7.33;;
22205;SDS011;11272;50.104;8.754;2024-02-21T02:33:27;24.33;;;7.10;;
22205;SDS011;11272;50.104;8.754;2024-02-21T02:35:53;15.53;;;6.97;;
22205;SDS011;11272;50.104;8.754;2024-02-21T02:38:19;24.10;;;7.70;;
22205;SDS011;11272;50.104;8.754;2024-02-21T02:40:44;21.40;;;6.63;;
22205;SDS011;11272;50.104;8.754;2024-02-21T02:43:10;21.23;;;6.80;;
22205;SDS011;11272;50.104;8.754;2024-02-21T02:45:35;19.87;;;7.60;;
22205;SDS011;11272;50.104;8.754;2024-02-21T02:48:01;21.60;;;6.40;;
22205;SDS011;11272;50.104;8.754;2024-02-21T02:50:27;21.20;;;6.67;;
22205;SDS011;11272;50.104;8.754;2024-02-21T02:52:53;21.87;;;7.20;;
22205;SDS011;11272;50.104;8.754;2024-02-21T02:55:19;18.07;;;6.87;;
22205;SDS011;11272;50.104;8.754;2024-02-21T02:57:45;23.50;;;7.80;;
22205;SDS011;11272;50.104;8.754;2024-02-21T03:00:11;21.07;;;7.70;;
22205;SDS011;11272;50.104;8.754;2024-02-21T03:02:38;18.87;;;6.33;;
22205;SDS011;11272;50.104;8.754;2024-02-21T03:05:11;17.80;;;6.73;;
22205;SDS011;11272;50.104;8.754;2024-02-21T03:07:38;16.40;;;7.13;;
22205;SDS011;11272;50.104;8.754;2024-02-21T03:10:04;20.53;;;7.87;;
22205;SDS011;11272;50.104;8.754;2024-02-21T03:12:30;20.97;;;7.90;;
22205;SDS011;11272;50.104;8.754;2024-02-21T03:14:56;22.13;;;8.63;;
22205;SDS011;11272;50.104;8.754;2024-02-21T03:17:21;17.97;;;6.80;;
22205;SDS011;11272;50.104;8.754;2024-02-21T03:19:47;12.13;;;4.97;;
22205;SDS011;11272;50.104;8.754;2024-02-21T03:22:15;14.50;;;7.07;;
22205;SDS011;11272;50.104;8.754;2024-02-21T03:24:41;18.37;;;7.10;;
22205;SDS011;11272;50.104;8.754;2024-02-21T03:27:07;24.03;;;8.30;;
22205;SDS011;11272;50.104;8.754;2024-02-21T03:29:33;21.93;;;6.87;;
22205;SDS011;11272;50.104;8.754;2024-02-21T03:31:59;21.33;;;6.90;;
22205;SDS011;11272;50.104;8.754;2024-02-21T03:34:27;16.30;;;7.50;;
22205;SDS011;11272;50.104;8.754;2024-02-21T03:36:53;20.10;;;6.60;;
22205;SDS011;11272;50.104;8.754;2024-02-21T03:39:18;20.57;;;6.63;;
22205;SDS011;11272;50.104;8.754;2024-02-21T03:45:06;25.43;;;7.87;;
22205;SDS011;11272;50.104;8.754;2024-02-21T03:47:32;23.33;;;7.27;;
22205;SDS011;11272;50.104;8.754;2024-02-21T03:49:57;20.00;;;7.30;;
22205;SDS011;11272;50.104;8.754;2024-02-21T03:52:24;21.07;;;7.43;;
22205;SDS011;11272;50.104;8.754;2024-02-21T03:54:50;20.13;;;7.03;;
22205;SDS011;11272;50.104;8.754;2024-02-21T03:57:16;22.33;;;6.60;;
22205;SDS011;11272;50.104;8.754;2024-02-21T03:59:42;24.67;;;6.93;;
22205;SDS011;11272;50.104;8.754;2024-02-21T04:04:35;19.43;;;7.40;;
22205;SDS011;11272;50.104;8.754;2024-02-21T04:07:02;15.03;;;6.70;;
22205;SDS011;11272;50.104;8.754;2024-02-21T04:09:32;25.87;;;7.00;;
22205;SDS011;11272;50.104;8.754;2024-02-21T04:11:59;18.00;;;6.90;;
22205;SDS011;11272;50.104;8.754;2024-02-21T04:14:25;22.13;;;7.53;;
22205;SDS011;11272;50.104;8.754;2024-02-21T04:16:51;19.33;;;7.10;;
22205;SDS011;11272;50.104;8.754;2024-02-21T04:19:16;18.33;;;6.53;;
22205;SDS011;11272;50.104;8.754;2024-02-21T04:21:42;15.83;;;5.00;;
22205;SDS011;11272;50.104;8.754;2024-02-21T04:24:07;22.07;;;7.10;;
22205;SDS011;11272;50.104;8.754;2024-02-21T04:26:33;15.83;;;6.43;;
22205;SDS011;11272;50.104;8.754;2024-02-21T04:28:59;21.70;;;6.77;;
22205;SDS011;11272;50.104;8.754;2024-02-21T04:31:24;19.77;;;7.30;;
22205;SDS011;11272;50.104;8.754;2024-02-21T04:33:50;8.90;;;3.07;;
22205;SDS011;11272;50.104;8.754;2024-02-21T04:36:15;17.77;;;7.33;;
22205;SDS011;11272;50.104;8.754;2024-02-21T04:38:41;23.17;;;7.07;;
22205;SDS011;11272;50.104;8.754;2024-02-21T04:41:06;15.87;;;5.43;;
22205;SDS011;11272;50.104;8.754;2024-02-21T04:43:33;17.67;;;7.13;;
22205;SDS011;11272;50.104;8.754;2024-02-21T04:45:58;19.33;;;7.03;;
22205;SDS011;11272;50.104;8.754;2024-02-21T04:48:24;23.37;;;5.47;;
22205;SDS011;11272;50.104;8.754;2024-02-21T04:50:49;18.17;;;6.57;;
22205;SDS011;11272;50.104;8.754;2024-02-21T04:53:15;13.70;;;6.60;;
22205;SDS011;11272;50.104;8.754;2024-02-21T04:55:41;19.00;;;6.93;;
22205;SDS011;11272;50.104;8.754;2024-02-21T04:58:07;25.03;;;7.33;;
22205;SDS011;11272;50.104;8.754;2024-02-21T05:00:33;14.63;;;6.67;;
22205;SDS011;11272;50.104;8.754;2024-02-21T05:02:59;22.10;;;6.53;;
22205;SDS011;11272;50.104;8.754;2024-02-21T05:05:24;17.40;;;6.67;;
22205;SDS011;11272;50.104;8.754;2024-02-21T05:07:50;21.07;;;6.97;;
22205;SDS011;11272;50.104;8.754;2024-02-21T05:10:15;20.07;;;7.23;;
22205;SDS011;11272;50.104;8.754;2024-02-21T05:12:46;17.47;;;6.67;;
22205;SDS011;11272;50.104;8.754;2024-02-21T05:15:12;19.00;;;6.43;;
22205;SDS011;11272;50.104;8.754;2024-02-21T05:17:37;20.07;;;6.43;;
22205;SDS011;11272;50.104;8.754;2024-02-21T05:20:05;20.50;;;6.87;;
22205;SDS011;11272;50.104;8.754;2024-02-21T05:22:31;21.60;;;7.50;;
22205;SDS011;11272;50.104;8.754;2024-02-21T05:24:57;25.77;;;7.20;;
22205;SDS011;11272;50.104;8.754;2024-02-21T05:27:22;17.63;;;7.07;;
22205;SDS011;11272;50.104;8.754;2024-02-21T05:29:48;23.83;;;7.50;;
22205;SDS011;11272;50.104;8.754;2024-02-21T05:32:14;20.23;;;6.57;;
22205;SDS011;11272;50.104;8.754;2024-02-21T05:34:39;18.67;;;7.43;;
22205;SDS011;11272;50.104;8.754;2024-02-21T05:37:07;13.83;;;6.40;;
22205;SDS011;11272;50.104;8.754;2024-02-21T05:39:33;18.00;;;7.37;;
22205;SDS011;11272;50.104;8.754;2024-02-21T05:41:58;19.87;;;7.07;;
22205;SDS011;11272;50.104;8.754;2024-02-21T05:44:24;18.00;;;6.47;;
22205;SDS011;11272;50.104;8.754;2024-02-21T05:46:51;20.53;;;7.00;;
22205;SDS011;11272;50.104;8.754;2024-02-21T05:49:16;26.53;;;8.60;;
22205;SDS011;11272;50.104;8.754;2024-02-21T05:51:43;19.27;;;8.03;;
22205;SDS011;11272;50.104;8.754;2024-02-21T05:54:08;18.73;;;7.10;;
22205;SDS011;11272;50.104;8.754;2024-02-21T05:56:34;20.70;;;7.60;;
22205;SDS011;11272;50.104;8.754;2024-02-21T05:58:59;12.73;;;6.60;;
22205;SDS011;11272;50.104;8.754;2024-02-21T06:01:25;22.37;;;6.43;;
22205;SDS011;11272;50.104;8.754;2024-02-21T06:03:50;19.33;;;6.17;;
22205;SDS011;11272;50.104;8.754;2024-02-21T06:06:16;21.03;;;7.07;;
22205;SDS011;11272;50.104;8.754;2024-02-21T06:08:42;18.63;;;7.73;;
22205;SDS011;11272;50.104;8.754;2024-02-21T06:11:07;19.17;;;6.60;;
22205;SDS011;11272;50.104;8.754;2024-02-21T06:13:37;16.13;;;6.53;;
22205;SDS011;11272;50.104;8.754;2024-02-21T06:16:04;22.53;;;7.13;;
22205;SDS011;11272;50.104;8.754;2024-02-21T06:18:30;12.93;;;4.87;;
22205;SDS011;11272;50.104;8.754;2024-02-21T06:20:56;17.27;;;5.30;;
22205;SDS011;11272;50.104;8.754;2024-02-21T06:23:22;22.27;;;6.90;;
22205;SDS011;11272;50.104;8.754;2024-02-21T06:25:47;20.97;;;7.07;;
22205;SDS011;11272;50.104;8.754;2024-02-21T06:28:13;16.83;;;6.90;;
22205;SDS011;11272;50.104;8.754;2024-02-21T06:30:41;19.50;;;6.60;;
22205;SDS011;11272;50.104;8.754;2024-02-21T06:33:12;18.17;;;6.97;;
22205;SDS011;11272;50.104;8.754;2024-02-21T06:35:38;19.93;;;7.30;;
22205;SDS011;11272;50.104;8.754;2024-02-21T06:38:06;20.73;;;7.23;;
22205;SDS011;11272;50.104;8.754;2024-02-21T06:40:32;14.70;;;6.27;;
22205;SDS011;11272;50.104;8.754;2024-02-21T06:43:03;23.87;;;7.20;;
22205;SDS011;11272;50.104;8.754;2024-02-21T06:45:29;14.47;;;6.17;;
22205;SDS011;11272;50.104;8.754;2024-02-21T06:47:54;17.93;;;7.10;;
22205;SDS011;11272;50.104;8.754;2024-02-21T06:50:20;16.23;;;6.80;;
22205;SDS011;11272;50.104;8.754;2024-02-21T06:52:47;16.97;;;7.43;;
22205;SDS011;11272;50.104;8.754;2024-02-21T06:55:12;21.10;;;7.30;;
22205;SDS011;11272;50.104;8.754;2024-02-21T06:57:41;15.13;;;6.50;;
22205;SDS011;11272;50.104;8.754;2024-02-21T07:00:07;18.97;;;6.23;;
22205;SDS011;11272;50.104;8.754;2024-02-21T07:02:33;21.07;;;8.03;;
22205;SDS011;11272;50.104;8.754;2024-02-21T07:04:59;18.80;;;6.83;;
22205;SDS011;11272;50.104;8.754;2024-02-21T07:07:27;16.10;;;7.07;;
22205;SDS011;11272;50.104;8.754;2024-02-21T07:09:54;15.60;;;6.50;;
22205;SDS011;11272;50.104;8.754;2024-02-21T07:12:21;15.40;;;6.20;;
22205;SDS011;11272;50.104;8.754;2024-02-21T07:14:47;18.63;;;6.10;;
22205;SDS011;11272;50.104;8.754;2024-02-21T07:17:12;14.50;;;5.43;;
22205;SDS011;11272;50.104;8.754;2024-02-21T07:19:38;15.03;;;5.83;;
22205;SDS011;11272;50.104;8.754;2024-02-21T07:22:03;17.87;;;5.73;;
22205;SDS011;11272;50.104;8.754;2024-02-21T07:24:29;16.27;;;6.50;;
22205;SDS011;11272;50.104;8.754;2024-02-21T07:26:57;15.97;;;5.30;;
22205;SDS011;11272;50.104;8.754;2024-02-21T07:29:22;13.37;;;4.80;;
22205;SDS011;11272;50.104;8.754;2024-02-21T07:31:48;14.70;;;5.47;;
22205;SDS011;11272;50.104;8.754;2024-02-21T07:34:14;15.83;;;5.17;;
22205;SDS011;11272;50.104;8.754;2024-02-21T07:39:08;15.57;;;4.70;;
22205;SDS011;11272;50.104;8.754;2024-02-21T07:41:34;16.20;;;4.90;;
22205;SDS011;11272;50.104;8.754;2024-02-21T07:44:00;17.47;;;4.60;;
22205;SDS011;11272;50.104;8.754;2024-02-21T07:46:25;9.13;;;4.53;;
22205;SDS011;11272;50.104;8.754;2024-02-21T07:48:51;11.57;;;5.13;;
22205;SDS011;11272;50.104;8.754;2024-02-21T07:51:16;11.60;;;4.07;;
22205;SDS011;11272;50.104;8.754;2024-02-21T07:53:43;11.73;;;3.90;;
22205;SDS011;11272;50.104;8.754;2024-02-21T07:56:13;14.77;;;4.50;;
22205;SDS011;11272;50.104;8.754;2024-02-21T07:58:40;14.87;;;5.00;;
22205;SDS011;11272;50.104;8.754;2024-02-21T08:01:06;15.83;;;4.60;;
22205;SDS011;11272;50.104;8.754;2024-02-21T08:03:33;7.67;;;3.23;;
22205;SDS011;11272;50.104;8.754;2024-02-21T08:05:59;8.73;;;3.80;;
22205;SDS011;11272;50.104;8.754;2024-02-21T08:08:24;21.73;;;4.57;;
22205;SDS011;11272;50.104;8.754;2024-02-21T08:10:50;9.70;;;4.60;;
22205;SDS011;11272;50.104;8.754;2024-02-21T08:13:17;12.10;;;3.83;;
22205;SDS011;11272;50.104;8.754;2024-02-21T08:15:43;14.07;;;4.93;;
22205;SDS011;11272;50.104;8.754;2024-02-21T08:18:10;10.73;;;3.97;;
22205;SDS011;11272;50.104;8.754;2024-02-21T08:20:35;7.80;;;3.47;;
22205;SDS011;11272;50.104;8.754;2024-02-21T08:23:01;11.03;;;3.80;;
22205;SDS011;11272;50.104;8.754;2024-02-21T08:25:26;13.60;;;4.43;;
22205;SDS011;11272;50.104;8.754;2024-02-21T08:27:57;9.23;;;4.03;;
22205;SDS011;11272;50.104;8.754;2024-02-21T08:30:23;10.87;;;4.80;;
22205;SDS011;11272;50.104;8.754;2024-02-21T08:32:49;11.73;;;4.33;;
22205;SDS011;11272;50.104;8.754;2024-02-21T08:35:16;10.70;;;4.83;;
22205;SDS011;11272;50.104;8.754;2024-02-21T08:37:43;13.30;;;4.87;;
22205;SDS011;11272;50.104;8.754;2024-02-21T08:40:09;8.80;;;3.77;;
22205;SDS011;11272;50.104;8.754;2024-02-21T08:42:35;10.20;;;3.80;;
22205;SDS011;11272;50.104;8.754;2024-02-21T08:45:05;14.97;;;4.17;;
22205;SDS011;11272;50.104;8.754;2024-02-21T08:47:31;12.40;;;3.93;;
22205;SDS011;11272;50.104;8.754;2024-02-21T08:49:56;12.60;;;3.70;;
22205;SDS011;11272;50.104;8.754;2024-02-21T08:52:22;10.07;;;3.60;;
22205;SDS011;11272;50.104;8.754;2024-02-21T08:54:48;8.53;;;3.73;;
22205;SDS011;11272;50.104;8.754;2024-02-21T08:57:13;11.93;;;3.70;;
22205;SDS011;11272;50.104;8.754;2024-02-21T08:59:39;8.83;;;3.77;;
22205;SDS011;11272;50.104;8.754;2024-02-21T09:02:05;13.93;;;3.97;;
22205;SDS011;11272;50.104;8.754;2024-02-21T09:04:32;11.07;;;3.77;;
22205;SDS011;11272;50.104;8.754;2024-02-21T09:06:58;9.50;;;3.63;;
22205;SDS011;11272;50.104;8.754;2024-02-21T09:09:24;6.63;;;3.37;;
22205;SDS011;11272;50.104;8.754;2024-02-21T09:11:50;9.60;;;3.20;;
22205;SDS011;11272;50.104;8.754;2024-02-21T09:14:16;13.43;;;3.60;;
22205;SDS011;11272;50.104;8.754;2024-02-21T09:16:41;10.37;;;3.70;;
22205;SDS011;11272;50.104;8.754;2024-02-21T09:19:07;13.87;;;4.20;;
22205;SDS011;11272;50.104;8.754;2024-02-21T09:21:36;14.30;;;4.40;;
22205;SDS011;11272;50.104;8.754;2024-02-21T09:24:05;13.27;;;4.07;;
22205;SDS011;11272;50.104;8.754;2024-02-21T09:26:31;13.50;;;3.93;;
22205;SDS011;11272;50.104;8.754;2024-02-21T09:28:57;12.27;;;3.97;;
22205;SDS011;11272;50.104;8.754;2024-02-21T09:31:22;9.63;;;3.33;;
22205;SDS011;11272;50.104;8.754;2024-02-21T09:33:48;9.20;;;3.80;;
22205;SDS011;11272;50.104;8.754;2024-02-21T09:36:14;7.80;;;3.80;;
22205;SDS011;11272;50.104;8.754;2024-02-21T09:38:40;6.53;;;3.57;;
22205;SDS011;11272;50.104;8.754;2024-02-21T09:41:17;11.63;;;3.87;;
22205;SDS011;11272;50.104;8.754;2024-02-21T09:43:44;11.13;;;4.20;;
22205;SDS011;11272;50.104;8.754;2024-02-21T09:46:17;12.13;;;3.50;;
22205;SDS011;11272;50.104;8.754;2024-02-21T09:48:54;11.37;;;3.90;;
22205;SDS011;11272;50.104;8.754;2024-02-21T09:51:34;8.00;;;3.43;;
22205;SDS011;11272;50.104;8.754;2024-02-21T09:54:02;8.87;;;3.50;;
22205;SDS011;11272;50.104;8.754;2024-02-21T09:56:28;9.13;;;3.70;;
22205;SDS011;11272;50.104;8.754;2024-02-21T09:58:54;7.53;;;3.23;;
22205;SDS011;11272;50.104;8.754;2024-02-21T10:01:19;8.30;;;3.93;;
22205;SDS011;11272;50.104;8.754;2024-02-21T10:03:45;11.47;;;3.77;;
22205;SDS011;11272;50.104;8.754;2024-02-21T10:06:11;11.20;;;4.10;;
22205;SDS011;11272;50.104;8.754;2024-02-21T10:08:38;8.23;;;3.33;;
22205;SDS011;11272;50.104;8.754;2024-02-21T10:11:03;12.43;;;3.70;;
22205;SDS011;11272;50.104;8.754;2024-02-21T10:13:29;16.67;;;4.33;;
22205;SDS011;11272;50.104;8.754;2024-02-21T10:16:02;12.73;;;3.70;;
22205;SDS011;11272;50.104;8.754;2024-02-21T10:18:28;9.90;;;3.80;;
22205;SDS011;11272;50.104;8.754;2024-02-21T10:21:03;11.40;;;3.73;;
22205;SDS011;11272;50.104;8.754;2024-02-21T10:23:40;6.90;;;3.20;;
22205;SDS011;11272;50.104;8.754;2024-02-21T10:26:08;15.03;;;4.13;;
22205;SDS011;11272;50.104;8.754;2024-02-21T10:28:34;10.20;;;3.50;;
22205;SDS011;11272;50.104;8.754;2024-02-21T10:31:00;9.30;;;4.03;;
22205;SDS011;11272;50.104;8.754;2024-02-21T10:33:25;9.10;;;3.50;;
22205;SDS011;11272;50.104;8.754;2024-02-21T10:35:53;12.77;;;4.60;;
22205;SDS011;11272;50.104;8.754;2024-02-21T10:38:18;14.23;;;4.97;;
22205;SDS011;11272;50.104;8.754;2024-02-21T10:40:46;9.80;;;3.80;;
22205;SDS011;11272;50.104;8.754;2024-02-21T10:43:14;10.57;;;3.70;;
22205;SDS011;11272;50.104;8.754;2024-02-21T10:45:44;13.00;;;4.47;;
22205;SDS011;11272;50.104;8.754;2024-02-21T10:48:11;8.70;;;4.17;;
22205;SDS011;11272;50.104;8.754;2024-02-21T10:50:46;9.17;;;3.90;;
22205;SDS011;11272;50.104;8.754;2024-02-21T10:56:31;12.03;;;4.07;;
22205;SDS011;11272;50.104;8.754;2024-02-21T10:59:02;13.13;;;4.10;;
22205;SDS011;11272;50.104;8.754;2024-02-21T11:01:29;8.50;;;3.13;;
22205;SDS011;11272;50.104;8.754;2024-02-21T11:03:58;6.93;;;3.50;;
22205;SDS011;11272;50.104;8.754;2024-02-21T11:06:28;10.00;;;3.90;;
22205;SDS011;11272;50.104;8.754;2024-02-21T11:09:00;9.00;;;3.73;;
22205;SDS011;11272;50.104;8.754;2024-02-21T11:11:33;7.90;;;3.93;;
22205;SDS011;11272;50.104;8.754;2024-02-21T11:16:45;9.13;;;3.97;;
22205;SDS011;11272;50.104;8.754;2024-02-21T11:19:21;13.03;;;4.07;;
22205;SDS011;11272;50.104;8.754;2024-02-21T11:21:47;9.40;;;3.03;;
22205;SDS011;11272;50.104;8.754;2024-02-21T11:24:31;11.43;;;4.17;;
22205;SDS011;11272;50.104;8.754;2024-02-21T11:27:12;10.67;;;4.27;;
22205;SDS011;11272;50.104;8.754;2024-02-21T11:29:44;9.70;;;3.70;;
22205;SDS011;11272;50.104;8.754;2024-02-21T11:32:14;15.47;;;3.13;;
22205;SDS011;11272;50.104;8.754;2024-02-21T11:34:41;12.13;;;4.67;;
22205;SDS011;11272;50.104;8.754;2024-02-21T11:37:17;11.87;;;3.40;;
22205;SDS011;11272;50.104;8.754;2024-02-21T11:39:43;14.43;;;4.00;;
22205;SDS011;11272;50.104;8.754;2024-02-21T11:42:09;13.00;;;4.23;;
22205;SDS011;11272;50.104;8.754;2024-02-21T11:44:36;14.43;;;3.03;;
22205;SDS011;11272;50.104;8.754;2024-02-21T11:47:07;9.17;;;3.50;;
22205;SDS011;11272;50.104;8.754;2024-02-21T11:49:37;19.27;;;4.40;;
22205;SDS011;11272;50.104;8.754;2024-02-21T11:52:07;7.90;;;3.50;;
22205;SDS011;11272;50.104;8.754;2024-02-21T11:54:33;8.30;;;3.40;;
22205;SDS011;11272;50.104;8.754;2024-02-21T11:57:01;9.27;;;3.40;;
22205;SDS011;11272;50.104;8.754;2024-02-21T11:59:29;10.40;;;3.90;;
22205;SDS011;11272;50.104;8.754;2024-02-21T12:01:55;9.93;;;3.33;;
22205;SDS011;11272;50.104;8.754;2024-02-21T12:04:21;8.33;;;3.30;;
22205;SDS011;11272;50.104;8.754;2024-02-21T12:06:49;14.17;;;3.50;;
22205;SDS011;11272;50.104;8.754;2024-02-21T12:09:15;8.80;;;3.50;;
22205;SDS011;11272;50.104;8.754;2024-02-21T12:11:41;12.07;;;3.73;;
22205;SDS011;11272;50.104;8.754;2024-02-21T12:14:15;14.87;;;3.40;;
22205;SDS011;11272;50.104;8.754;2024-02-21T12:16:42;8.53;;;2.80;;
22205;SDS011;11272;50.104;8.754;2024-02-21T12:19:09;10.27;;;3.73;;
22205;SDS011;11272;50.104;8.754;2024-02-21T12:21:35;9.07;;;3.47;;
22205;SDS011;11272;50.104;8.754;2024-02-21T12:26:41;7.73;;;3.17;;
22205;SDS011;11272;50.104;8.754;2024-02-21T12:29:07;7.57;;;3.17;;
22205;SDS011;11272;50.104;8.754;2024-02-21T12:31:39;10.00;;;3.37;;
22205;SDS011;11272;50.104;8.754;2024-02-21T12:34:05;14.67;;;3.37;;
22205;SDS011;11272;50.104;8.754;2024-02-21T12:36:31;10.67;;;2.80;;
22205;SDS011;11272;50.104;8.754;2024-02-21T12:38:58;14.53;;;3.57;;
22205;SDS011;11272;50.104;8.754;2024-02-21T12:41:24;10.03;;;3.37;;
22205;SDS011;11272;50.104;8.754;2024-02-21T12:43:52;7.77;;;3.20;;
22205;SDS011;11272;50.104;8.754;2024-02-21T12:46:18;12.53;;;3.30;;
22205;SDS011;11272;50.104;8.754;2024-02-21T12:48:44;13.13;;;2.90;;
22205;SDS011;11272;50.104;8.754;2024-02-21T12:51:09;18.57;;;3.67;;
22205;SDS011;11272;50.104;8.754;2024-02-21T12:53:35;8.57;;;2.37;;
22205;SDS011;11272;50.104;8.754;2024-02-21T12:56:00;13.37;;;2.93;;
22205;SDS011;11272;50.104;8.754;2024-02-21T12:58:26;7.47;;;3.17;;
22205;SDS011;11272;50.104;8.754;2024-02-21T13:00:51;11.70;;;3.07;;
22205;SDS011;11272;50.104;8.754;2024-02-21T13:03:18;12.97;;;3.23;;
22205;SDS011;11272;50.104;8.754;2024-02-21T13:05:44;8.70;;;3.20;;
22205;SDS011;11272;50.104;8.754;2024-02-21T13:08:09;11.10;;;3.03;;
22205;SDS011;11272;50.104;8.754;2024-02-21T13:10:35;6.37;;;2.80;;
22205;SDS011;11272;50.104;8.754;2024-02-21T13:13:01;8.10;;;2.83;;
22205;SDS011;11272;50.104;8.754;2024-02-21T13:15:27;8.73;;;3.20;;
22205;SDS011;11272;50.104;8.754;2024-02-21T13:17:55;6.50;;;3.20;;
22205;SDS011;11272;50.104;8.754;2024-02-21T13:20:22;9.53;;;2.83;;
22205;SDS011;11272;50.104;8.754;2024-02-21T13:22:48;13.47;;;3.70;;
22205;SDS011;11272;50.104;8.754;2024-02-21T13:25:14;7.80;;;2.80;;
22205;SDS011;11272;50.104;8.754;2024-02-21T13:27:46;9.60;;;3.33;;
22205;SDS011;11272;50.104;8.754;2024-02-21T13:30:13;8.50;;;3.03;;
22205;SDS011;11272;50.104;8.754;2024-02-21T13:32:42;8.73;;;2.87;;
22205;SDS011;11272;50.104;8.754;2024-02-21T13:35:08;9.30;;;3.10;;
22205;SDS011;11272;50.104;8.754;2024-02-21T13:37:37;5.90;;;2.50;;
22205;SDS011;11272;50.104;8.754;2024-02-21T13:40:03;6.90;;;2.63;;
22205;SDS011;11272;50.104;8.754;2024-02-21T13:42:29;5.27;;;1.80;;
22205;SDS011;11272;50.104;8.754;2024-02-21T13:44:55;10.97;;;2.70;;
22205;SDS011;11272;50.104;8.754;2024-02-21T13:47:20;12.07;;;2.97;;
22205;SDS011;11272;50.104;8.754;2024-02-21T13:49:47;9.67;;;2.83;;
22205;SDS011;11272;50.104;8.754;2024-02-21T13:52:13;10.27;;;2.87;;
22205;SDS011;11272;50.104;8.754;2024-02-21T13:54:40;9.67;;;2.70;;
22205;SDS011;11272;50.104;8.754;2024-02-21T13:57:07;9.73;;;2.60;;
22205;SDS011;11272;50.104;8.754;2024-02-21T13:59:32;9.70;;;2.90;;
22205;SDS011;11272;50.104;8.754;2024-02-21T14:01:59;8.10;;;2.80;;
22205;SDS011;11272;50.104;8.754;2024-02-21T14:04:24;6.83;;;2.50;;
22205;SDS011;11272;50.104;8.754;2024-02-21T14:06:50;8.97;;;2.60;;
22205;SDS011;11272;50.104;8.754;2024-02-21T14:09:16;6.63;;;2.57;;
22205;SDS011;11272;50.104;8.754;2024-02-21T14:11:41;10.33;;;2.63;;
22205;SDS011;11272;50.104;8.754;2024-02-21T14:14:07;8.60;;;2.13;;
22205;SDS011;11272;50.104;8.754;2024-02-21T14:16:33;8.97;;;2.97;;
22205;SDS011;11272;50.104;8.754;2024-02-21T14:18:59;6.07;;;2.40;;
22205;SDS011;11272;50.104;8.754;2024-02-21T14:21:24;10.93;;;2.80;;
22205;SDS011;11272;50.104;8.754;2024-02-21T14:23:51;9.27;;;2.47;;
22205;SDS011;11272;50.104;8.754;2024-02-21T14:26:18;7.10;;;2.30;;
22205;SDS011;11272;50.104;8.754;2024-02-21T14:28:43;5.43;;;2.30;;
22205;SDS011;11272;50.104;8.754;2024-02-21T14:31:12;5.20;;;2.50;;
22205;SDS011;11272;50.104;8.754;2024-02-21T14:33:37;8.30;;;1.97;;
22205;SDS011;11272;50.104;8.754;2024-02-21T14:36:03;8.83;;;2.27;;
22205;SDS011;11272;50.104;8.754;2024-02-21T14:38:29;3.47;;;1.63;;
22205;SDS011;11272;50.104;8.754;2024-02-21T14:40:55;8.00;;;2.37;;
22205;SDS011;11272;50.104;8.754;2024-02-21T14:43:21;6.93;;;2.30;;
22205;SDS011;11272;50.104;8.754;2024-02-21T14:45:47;9.53;;;2.77;;
22205;SDS011;11272;50.104;8.754;2024-02-21T14:48:13;9.10;;;2.60;;
22205;SDS011;11272;50.104;8.754;2024-02-21T14:50:40;5.80;;;2.10;;
22205;SDS011;11272;50.104;8.754;2024-02-21T14:53:06;7.63;;;3.07;;